Terminal Aerodrome Forecast
Issued by NWS Portland, ME

Home | Current Version | Previous Version | Text Only | Print | Product List | Glossary On
Versions: 1 2 3 4 5 6 7 8 9 10 11 12 13 14 15
000
FTUS41 KGYX 111120
TAFPWM
TAF
KPWM 111120Z 1112/1212 28006KT P6SM BKN250
     FM120200 VRB03KT P6SM BKN050
     FM120500 VRB03KT 2SM -SN BR OVC015
     FM121000 07005KT 1/2SM SN OVC004=

USA.gov is the U.S. government's official web portal to all federal, state and local government web resources and services.